Time;durP1;ratioP1;P1;durP2;ratioP2;P2;SDS_P1;SDS_P2;PMS_P1;PMS_P2;Temp;Humidity;BMP_temperature;BMP_pressure;BME280_temperature;BME280_humidity;BME280_pressure;Samples;Min_cycle;Max_cycle;Signal;HPM_P1;HPM_P2
2023/03/29 05:03:13;;;;;;;1.95;0.82;;;8.40;97.20;;;;;;5199551;23;20054;-75
2023/03/29 05:05:47;;;;;;;1.90;0.77;;;8.50;96.60;;;;;;4952349;28;20045;-74
2023/03/29 05:08:13;;;;;;;2.33;0.70;;;8.60;95.90;;;;;;4982977;28;20031;-73
2023/03/29 05:11:00;;;;;;;2.47;0.68;;;8.70;95.70;;;;;;4982559;28;20081;-75
2023/03/29 05:13:27;;;;;;;1.67;0.60;;;8.70;95.20;;;;;;4975616;28;20081;-73
2023/03/29 05:15:53;;;;;;;2.78;0.70;;;8.80;94.90;;;;;;4963416;28;20109;-73
2023/03/29 05:18:22;;;;;;;1.70;0.93;;;8.90;94.40;;;;;;4979866;28;20038;-71
2023/03/29 05:20:51;;;;;;;3.13;0.80;;;8.90;94.50;;;;;;4971998;28;20026;-75
2023/03/29 05:23:19;;;;;;;1.92;0.80;;;8.90;94.50;;;;;;4973634;28;20341;-73
2023/03/29 05:26:03;;;;;;;2.67;1.08;;;8.90;94.80;;;;;;4974887;28;20030;-74
2023/03/29 05:28:29;;;;;;;4.85;1.00;;;8.90;95.60;;;;;;4982341;28;20027;-73
2023/03/29 05:31:00;;;;;;;2.22;0.98;;;8.80;95.90;;;;;;4966629;28;20329;-74
2023/03/29 05:33:27;;;;;;;2.97;1.08;;;8.80;96.50;;;;;;4978751;28;20098;-76
2023/03/29 05:36:06;;;;;;;3.00;1.33;;;8.70;96.60;;;;;;4969416;28;20023;-77
2023/03/29 05:38:34;;;;;;;3.08;1.08;;;8.70;97.00;;;;;;4969210;28;20026;-72
2023/03/29 05:41:01;;;;;;;3.38;1.20;;;8.70;97.00;;;;;;4981886;28;20117;-73
2023/03/29 05:43:53;;;;;;;5.05;1.30;;;8.70;96.80;;;;;;4970566;28;20336;-73
2023/03/29 05:46:22;;;;;;;3.85;1.70;;;8.70;96.40;;;;;;4966732;28;20091;-76
2023/03/29 05:48:51;;;;;;;4.55;1.02;;;8.80;96.60;;;;;;4965242;28;20045;-75
2023/03/29 05:51:22;;;;;;;3.10;0.98;;;8.70;95.40;;;;;;4986526;28;20078;-76
2023/03/29 05:53:50;;;;;;;2.70;1.10;;;8.80;95.60;;;;;;4982432;28;20027;-78
2023/03/29 06:00:14;;;;;;;;;;;8.90;95.70;;;;;;4972773;28;20335;-75
2023/03/29 06:02:40;;;;;;;4.50;1.10;;;9.00;95.20;;;;;;4968002;28;19993;-73
2023/03/29 06:05:06;;;;;;;4.10;1.05;;;9.00;95.50;;;;;;4948069;28;20039;-73
2023/03/29 06:07:55;;;;;;;7.35;1.70;;;9.10;95.00;;;;;;4950319;28;20047;-73
2023/03/29 06:10:36;;;;;;;7.25;1.17;;;9.10;95.10;;;;;;4959971;28;20061;-76
2023/03/29 06:13:16;;;;;;;3.30;0.98;;;9.20;94.80;;;;;;4945493;29;20221;-74
2023/03/29 06:15:43;;;;;;;2.72;0.90;;;9.30;94.60;;;;;;4959891;28;20042;-74
2023/03/29 06:18:12;;;;;;;3.22;1.17;;;9.40;94.30;;;;;;4945351;29;20054;-72
2023/03/29 06:20:38;;;;;;;3.88;1.30;;;9.40;94.20;;;;;;4946633;29;20031;-74
2023/03/29 06:23:10;;;;;;;3.20;1.05;;;9.50;94.10;;;;;;4958723;28;20098;-74
2023/03/29 06:25:36;;;;;;;3.67;0.90;;;9.50;94.00;;;;;;4962165;28;20038;-73
2023/03/29 06:28:02;;;;;;;3.40;1.00;;;9.60;93.70;;;;;;4961588;28;20250;-72
2023/03/29 06:30:28;;;;;;;3.20;0.80;;;9.70;93.60;;;;;;4961722;28;20058;-73
2023/03/29 06:32:59;;;;;;;3.60;1.08;;;9.70;93.60;;;;;;4958695;28;20034;-73
2023/03/29 06:35:52;;;;;;;3.05;1.10;;;9.70;93.60;;;;;;4953425;28;20194;-74
2023/03/29 06:38:27;;;;;;;3.50;1.15;;;9.80;93.60;;;;;;4953723;28;20694;-74
2023/03/29 06:41:14;;;;;;;2.75;1.20;;;9.90;93.60;;;;;;4963026;28;20424;-74
2023/03/29 06:43:56;;;;;;;4.90;1.40;;;10.00;93.30;;;;;;4961617;28;20075;-74
2023/03/29 06:46:29;;;;;;;3.85;1.30;;;10.10;93.40;;;;;;4963765;28;20280;-74
2023/03/29 06:48:58;;;;;;;3.88;1.25;;;10.20;93.20;;;;;;4949243;28;20042;-73
2023/03/29 06:51:32;;;;;;;3.47;1.15;;;10.30;93.00;;;;;;4967430;28;20204;-74
2023/03/29 06:54:01;;;;;;;5.15;1.45;;;10.40;93.30;;;;;;4944058;29;20050;-73
2023/03/29 06:56:30;;;;;;;3.78;1.05;;;10.50;93.60;;;;;;4941585;29;20031;-74
2023/03/29 06:59:05;;;;;;;2.97;1.40;;;10.50;93.00;;;;;;4959115;28;20046;-75
2023/03/29 07:01:41;;;;;;;6.20;1.50;;;10.70;92.60;;;;;;4940461;29;20083;-75
2023/03/29 07:04:17;;;;;;;3.70;1.60;;;10.70;92.90;;;;;;4953940;28;20043;-75
2023/03/29 07:07:02;;;;;;;6.20;1.30;;;10.80;92.40;;;;;;4960944;28;20027;-75
2023/03/29 07:09:32;;;;;;;4.32;1.10;;;10.80;92.10;;;;;;4963512;28;20059;-76
2023/03/29 07:12:21;;;;;;;3.17;1.10;;;10.90;92.00;;;;;;4925913;29;20031;-74
2023/03/29 07:14:47;;;;;;;3.08;1.00;;;11.00;91.60;;;;;;4959059;28;20027;-75
2023/03/29 07:17:13;;;;;;;3.22;1.10;;;11.10;91.40;;;;;;4951662;28;20023;-76
2023/03/29 07:19:40;;;;;;;3.33;1.20;;;11.10;91.40;;;;;;4943878;28;20348;-72
2023/03/29 07:22:26;;;;;;;4.05;1.33;;;11.30;91.60;;;;;;4948986;29;20057;-72
2023/03/29 07:24:58;;;;;;;3.95;1.40;;;11.40;92.30;;;;;;4959104;28;20051;-74
2023/03/29 07:27:25;;;;;;;3.65;1.60;;;11.50;92.60;;;;;;4961745;28;20093;-75
2023/03/29 07:29:55;;;;;;;5.25;1.70;;;11.50;92.60;;;;;;4940087;29;20067;-74
2023/03/29 07:32:21;;;;;;;5.25;1.58;;;11.50;92.50;;;;;;4956985;28;20088;-74
2023/03/29 07:34:54;;;;;;;2.95;1.55;;;11.50;92.30;;;;;;4955334;28;20046;-74
2023/03/29 07:37:34;;;;;;;4.47;1.40;;;11.50;92.20;;;;;;4955021;28;20031;-75
2023/03/29 07:40:10;;;;;;;7.60;1.88;;;11.60;92.00;;;;;;4961533;28;20038;-75
2023/03/29 07:43:06;;;;;;;5.10;1.50;;;11.70;91.70;;;;;;4949339;28;20309;-76
2023/03/29 07:45:32;;;;;;;5.93;1.77;;;11.80;91.50;;;;;;4964030;28;20027;-74
2023/03/29 07:48:08;;;;;;;4.63;1.73;;;11.90;91.40;;;;;;4957958;28;20024;-74
2023/03/29 07:50:54;;;;;;;4.97;1.60;;;12.00;91.60;;;;;;4960680;28;20054;-72
2023/03/29 07:53:29;;;;;;;4.82;1.75;;;12.20;91.20;;;;;;4958053;28;20039;-73
2023/03/29 07:55:56;;;;;;;5.35;1.42;;;12.30;90.60;;;;;;4955603;28;20098;-73
2023/03/29 07:58:48;;;;;;;7.55;1.50;;;12.50;90.50;;;;;;4957823;28;20027;-74
2023/03/29 08:01:18;;;;;;;4.18;1.77;;;12.70;90.10;;;;;;4949049;28;20027;-75
2023/03/29 08:03:58;;;;;;;3.05;1.00;;;12.70;89.60;;;;;;4961348;28;20058;-74
2023/03/29 08:06:47;;;;;;;2.55;0.90;;;12.70;88.80;;;;;;4961811;28;20254;-74
2023/03/29 08:09:13;;;;;;;2.88;1.00;;;12.70;87.80;;;;;;4948540;28;20026;-73
2023/03/29 08:11:42;;;;;;;3.97;1.40;;;12.80;88.30;;;;;;4947298;29;20221;-75
2023/03/29 08:14:23;;;;;;;3.90;1.35;;;13.00;89.20;;;;;;4962815;28;20123;-73
2023/03/29 08:17:09;;;;;;;4.82;1.35;;;13.30;89.60;;;;;;4965658;28;20348;-75
2023/03/29 08:19:43;;;;;;;4.30;1.38;;;13.60;88.50;;;;;;4961378;28;20024;-76
2023/03/29 08:22:09;;;;;;;5.93;1.75;;;13.80;87.80;;;;;;4958539;28;20210;-75
2023/03/29 08:24:55;;;;;;;4.65;1.67;;;13.90;86.80;;;;;;4905259;29;20219;-74
2023/03/29 08:27:25;;;;;;;2.40;0.88;;;13.80;86.30;;;;;;4953053;28;20031;-75
2023/03/29 08:29:51;;;;;;;1.95;0.80;;;14.00;84.80;;;;;;4962419;28;20313;-75
2023/03/29 08:32:17;;;;;;;3.10;0.80;;;13.80;83.60;;;;;;4964802;28;20077;-73
2023/03/29 08:34:43;;;;;;;3.70;1.05;;;13.60;85.40;;;;;;4960846;28;20686;-77
2023/03/29 08:37:24;;;;;;;4.57;1.25;;;13.40;85.70;;;;;;4962909;28;20019;-74
2023/03/29 08:39:52;;;;;;;3.25;1.17;;;13.30;86.50;;;;;;4960976;28;20024;-73
2023/03/29 08:42:50;;;;;;;3.95;1.10;;;13.30;87.30;;;;;;4959612;28;20027;-73
2023/03/29 08:45:39;;;;;;;2.90;1.42;;;13.40;87.00;;;;;;4964632;29;20124;-74
2023/03/29 08:48:23;;;;;;;5.80;1.10;;;13.40;86.50;;;;;;4958581;28;20016;-74
2023/03/29 08:51:00;;;;;;;5.00;1.23;;;13.30;86.50;;;;;;4962580;28;20038;-74
2023/03/29 08:53:45;;;;;;;4.63;1.02;;;13.20;86.70;;;;;;4960506;28;20209;-72
2023/03/29 08:56:25;;;;;;;4.32;1.20;;;13.20;86.30;;;;;;4959238;28;20119;-74
2023/03/29 08:59:24;;;;;;;5.32;1.42;;;13.20;86.80;;;;;;4957786;28;20321;-75
2023/03/29 09:01:54;;;;;;;5.22;1.20;;;13.40;86.40;;;;;;4961651;28;20060;-73
2023/03/29 09:04:30;;;;;;;3.63;1.10;;;13.50;86.70;;;;;;4946053;29;20228;-72
2023/03/29 09:07:10;;;;;;;1.42;0.60;;;13.70;85.80;;;;;;4964048;28;20027;-73
2023/03/29 09:09:41;;;;;;;3.30;0.88;;;14.00;84.50;;;;;;4954467;28;20031;-73
2023/03/29 09:12:15;;;;;;;2.47;0.65;;;13.80;83.60;;;;;;4964915;28;20330;-72
2023/03/29 09:15:03;;;;;;;3.35;0.80;;;13.90;83.80;;;;;;4943154;29;20027;-74
2023/03/29 09:17:38;;;;;;;2.58;0.75;;;14.20;83.30;;;;;;4951331;28;20019;-74
2023/03/29 09:20:48;;;;;;;2.25;1.00;;;14.20;82.10;;;;;;4960146;28;20301;-75
2023/03/29 09:23:24;;;;;;;4.63;1.00;;;14.00;82.40;;;;;;4959275;28;20393;-73
2023/03/29 09:26:28;;;;;;;2.65;0.82;;;14.00;82.50;;;;;;4937990;29;20030;-75
2023/03/29 09:29:36;;;;;;;4.47;0.95;;;14.10;82.00;;;;;;4946749;29;20022;-74
2023/03/29 09:32:11;;;;;;;3.80;0.90;;;14.20;82.10;;;;;;4953892;28;20292;-73
2023/03/29 09:34:50;;;;;;;2.42;1.20;;;14.30;81.70;;;;;;4958238;28;20111;-73
2023/03/29 09:37:32;;;;;;;3.33;0.90;;;14.40;81.00;;;;;;4954752;28;20027;-73
2023/03/29 09:40:09;;;;;;;2.67;0.80;;;14.60;80.80;;;;;;4958708;28;20039;-73
2023/03/29 09:42:49;;;;;;;3.58;1.00;;;14.80;80.50;;;;;;4960324;28;20023;-74
2023/03/29 09:45:18;;;;;;;3.72;1.05;;;15.20;80.10;;;;;;4955193;28;20028;-75
2023/03/29 09:48:02;;;;;;;6.47;1.10;;;15.40;79.90;;;;;;4957139;28;20035;-71
2023/03/29 09:50:47;;;;;;;2.83;1.25;;;15.60;78.30;;;;;;4963395;28;20030;-73
2023/03/29 09:53:19;;;;;;;4.32;1.08;;;15.70;78.50;;;;;;4964669;28;20332;-73
2023/03/29 09:55:54;;;;;;;3.80;1.30;;;16.10;77.90;;;;;;4929050;29;20035;-75
2023/03/29 09:58:35;;;;;;;5.65;1.27;;;16.30;77.60;;;;;;4946869;29;20106;-74
2023/03/29 10:01:07;;;;;;;3.90;1.23;;;16.20;76.40;;;;;;4959922;28;20035;-73
2023/03/29 10:03:33;;;;;;;4.07;1.10;;;16.30;76.80;;;;;;4966922;28;20042;-74
2023/03/29 10:06:11;;;;;;;2.53;0.70;;;16.50;75.80;;;;;;4970561;28;20026;-75
2023/03/29 10:08:43;;;;;;;2.53;0.90;;;16.40;73.30;;;;;;4962883;28;20027;-73
2023/03/29 10:11:34;;;;;;;2.33;0.85;;;16.60;72.90;;;;;;4942632;29;20034;-75
2023/03/29 10:14:05;;;;;;;2.80;0.80;;;16.50;71.60;;;;;;4954395;28;20524;-73
2023/03/29 10:16:38;;;;;;;2.22;0.77;;;16.80;72.40;;;;;;4964471;28;20085;-75
2023/03/29 10:19:27;;;;;;;2.72;0.82;;;16.90;70.80;;;;;;4963087;28;20050;-75
2023/03/29 10:21:58;;;;;;;2.25;0.77;;;17.40;70.90;;;;;;4963726;28;20221;-73
2023/03/29 10:24:26;;;;;;;2.80;0.80;;;17.90;70.70;;;;;;4960150;28;20079;-72
2023/03/29 10:27:01;;;;;;;3.78;0.90;;;18.20;68.20;;;;;;4960342;29;20027;-74
2023/03/29 10:29:41;;;;;;;3.28;1.00;;;17.80;68.50;;;;;;4963430;28;20078;-73
2023/03/29 10:32:34;;;;;;;2.58;0.93;;;17.30;69.00;;;;;;4963921;29;20035;-74
2023/03/29 10:35:23;;;;;;;2.80;0.85;;;17.20;69.20;;;;;;4960864;28;20237;-76
2023/03/29 10:37:52;;;;;;;5.28;1.20;;;17.10;69.50;;;;;;4963742;28;20453;-74
2023/03/29 10:40:20;;;;;;;;;;;17.20;70.00;;;;;;4959418;28;20035;-74
2023/03/29 10:42:49;;;;;;;3.13;0.95;;;17.60;68.70;;;;;;4963812;28;19911;-74
2023/03/29 10:45:25;;;;;;;4.63;0.90;;;17.50;69.00;;;;;;4959727;28;20032;-73
2023/03/29 10:47:55;;;;;;;2.80;0.90;;;18.00;69.20;;;;;;4962472;29;20043;-78
2023/03/29 10:50:21;;;;;;;4.43;0.95;;;18.30;67.40;;;;;;4929215;29;20053;-76
2023/03/29 10:52:49;;;;;;;2.40;0.95;;;18.20;67.30;;;;;;4963218;28;20053;-77
2023/03/29 10:55:15;;;;;;;3.05;0.93;;;18.50;68.40;;;;;;4963690;28;20031;-74
2023/03/29 10:58:19;;;;;;;2.90;0.95;;;18.80;66.10;;;;;;4963592;29;20099;-74
2023/03/29 11:00:55;;;;;;;2.15;0.73;;;18.60;65.70;;;;;;4951992;28;20043;-74
2023/03/29 11:03:33;;;;;;;2.40;0.80;;;18.40;66.60;;;;;;4962663;29;20051;-73
2023/03/29 11:06:33;;;;;;;1.80;0.70;;;18.60;66.70;;;;;;4962932;28;20027;-73
2023/03/29 11:09:06;;;;;;;2.65;0.90;;;18.70;65.70;;;;;;4963157;28;20274;-74
2023/03/29 11:11:50;;;;;;;2.58;0.90;;;18.60;66.60;;;;;;4962546;28;20027;-75
2023/03/29 11:14:40;;;;;;;2.17;0.85;;;18.50;66.20;;;;;;4962196;28;20031;-77
2023/03/29 11:17:44;;;;;;;3.70;0.73;;;18.60;66.40;;;;;;4952714;28;20246;-75
2023/03/29 11:20:25;;;;;;;3.67;1.00;;;19.00;66.80;;;;;;4961700;28;20024;-74
2023/03/29 11:23:23;;;;;;;2.38;0.90;;;19.00;65.80;;;;;;4961771;28;20027;-77
2023/03/29 11:26:13;;;;;;;3.67;1.00;;;19.20;65.90;;;;;;4953635;28;20102;-75
2023/03/29 11:28:44;;;;;;;3.03;1.02;;;19.70;64.50;;;;;;4962250;28;20030;-75
2023/03/29 11:31:26;;;;;;;2.28;0.98;;;19.80;65.20;;;;;;4962362;28;20035;-74
2023/03/29 11:34:03;;;;;;;2.88;1.02;;;20.40;64.60;;;;;;4961747;29;20840;-75
2023/03/29 11:36:43;;;;;;;2.47;0.90;;;21.70;63.40;;;;;;4960813;28;20082;-73
2023/03/29 11:39:27;;;;;;;3.70;0.90;;;21.80;62.90;;;;;;4963612;28;20038;-75
2023/03/29 11:42:01;;;;;;;5.47;0.95;;;21.50;61.10;;;;;;4960497;28;20039;-78
2023/03/29 11:44:30;;;;;;;1.85;0.65;;;21.20;62.00;;;;;;4962303;28;20079;-79
2023/03/29 11:47:06;;;;;;;3.08;0.70;;;20.90;63.60;;;;;;4957201;28;20039;-76
2023/03/29 11:49:35;;;;;;;4.60;0.82;;;20.90;62.70;;;;;;4965947;28;20074;-78
2023/03/29 11:52:13;;;;;;;3.40;0.93;;;20.80;64.10;;;;;;4964683;28;20043;-76
2023/03/29 11:54:51;;;;;;;3.05;0.75;;;20.80;62.90;;;;;;4949669;29;20061;-75
2023/03/29 11:57:29;;;;;;;3.03;0.90;;;20.50;63.90;;;;;;4964896;28;20042;-75
2023/03/29 12:00:04;;;;;;;3.47;0.73;;;20.70;63.90;;;;;;4965434;28;20035;-75
2023/03/29 12:02:50;;;;;;;2.72;0.70;;;20.70;63.70;;;;;;4965350;28;20047;-75
2023/03/29 12:05:16;;;;;;;5.13;1.20;;;20.70;63.80;;;;;;4965263;28;20245;-76
2023/03/29 12:07:47;;;;;;;2.78;1.00;;;20.40;64.20;;;;;;4961999;28;20102;-74
2023/03/29 12:10:20;;;;;;;3.60;0.88;;;20.30;63.40;;;;;;4962595;28;20063;-74
2023/03/29 12:12:56;;;;;;;3.03;0.90;;;20.90;64.20;;;;;;4965459;28;20101;-73
2023/03/29 12:15:25;;;;;;;2.88;0.70;;;22.70;59.90;;;;;;4965294;28;20074;-74
2023/03/29 12:18:28;;;;;;;2.90;0.80;;;24.70;58.90;;;;;;4965169;28;20031;-75
2023/03/29 12:21:00;;;;;;;2.65;0.73;;;25.50;56.50;;;;;;4966054;28;20023;-75
2023/03/29 12:23:31;;;;;;;1.95;0.63;;;25.80;55.10;;;;;;4965300;28;20219;-76
2023/03/29 12:26:10;;;;;;;2.30;0.70;;;25.30;54.80;;;;;;4963867;28;20031;-74
2023/03/29 12:29:06;;;;;;;4.05;0.85;;;24.40;56.00;;;;;;4964508;28;20213;-74
2023/03/29 12:31:35;;;;;;;1.67;0.55;;;24.30;56.90;;;;;;4960096;28;20215;-73
2023/03/29 12:34:10;;;;;;;3.08;1.00;;;23.90;58.10;;;;;;4964030;28;20291;-75
2023/03/29 12:37:19;;;;;;;4.25;0.98;;;23.50;57.70;;;;;;4958518;28;20239;-74
2023/03/29 12:39:45;;;;;;;3.05;0.70;;;23.00;57.30;;;;;;4956785;28;20027;-72
2023/03/29 12:42:31;;;;;;;2.30;0.60;;;22.20;57.50;;;;;;4929320;28;20332;-76
2023/03/29 12:45:28;;;;;;;2.35;0.50;;;21.70;59.20;;;;;;4965850;28;20076;-75
2023/03/29 12:47:55;;;;;;;2.13;0.52;;;20.80;59.90;;;;;;4964000;28;20241;-76
2023/03/29 12:50:47;;;;;;;2.72;0.60;;;20.50;61.00;;;;;;4965704;28;20031;-72
2023/03/29 12:53:17;;;;;;;1.80;0.38;;;20.20;61.70;;;;;;4965180;28;20364;-72
2023/03/29 12:55:43;;;;;;;2.75;0.73;;;19.70;62.70;;;;;;4963857;28;20035;-75
2023/03/29 12:58:36;;;;;;;1.67;0.50;;;19.80;64.40;;;;;;4963214;28;20167;-79
2023/03/29 13:01:22;;;;;;;3.30;0.60;;;19.30;65.50;;;;;;4963856;28;20060;-74
2023/03/29 13:04:00;;;;;;;3.38;0.70;;;19.10;67.00;;;;;;4960404;28;20262;-74
2023/03/29 13:06:29;;;;;;;2.67;0.50;;;19.00;67.00;;;;;;4950040;29;20365;-74
2023/03/29 13:09:19;;;;;;;5.50;0.60;;;19.30;66.40;;;;;;4947849;29;20099;-74
2023/03/29 13:11:52;;;;;;;2.33;0.65;;;19.10;66.00;;;;;;4939597;29;20078;-73
2023/03/29 13:14:22;;;;;;;1.70;0.50;;;18.90;66.60;;;;;;4940856;29;20055;-75
2023/03/29 13:16:48;;;;;;;2.75;0.57;;;18.60;66.70;;;;;;4945165;29;20047;-75
2023/03/29 13:19:38;;;;;;;2.45;0.68;;;18.50;67.90;;;;;;4935757;29;20048;-73
2023/03/29 13:22:42;;;;;;;3.45;0.93;;;18.50;67.50;;;;;;4941399;29;20028;-74
2023/03/29 13:25:18;;;;;;;4.03;0.88;;;18.50;66.10;;;;;;4944129;29;20047;-73
2023/03/29 13:28:06;;;;;;;2.83;0.70;;;18.90;65.80;;;;;;4943715;29;20055;-76
2023/03/29 13:30:50;;;;;;;2.17;0.55;;;19.40;65.00;;;;;;4936543;29;20019;-74
2023/03/29 13:33:52;;;;;;;2.40;0.70;;;19.60;65.40;;;;;;4937950;29;20034;-74
2023/03/29 13:36:52;;;;;;;1.67;0.40;;;19.80;64.50;;;;;;4938125;29;20042;-77
2023/03/29 13:39:30;;;;;;;1.90;0.57;;;19.00;65.70;;;;;;4942505;29;20499;-75
2023/03/29 13:42:07;;;;;;;2.10;0.50;;;18.30;68.00;;;;;;4944561;29;20298;-73
2023/03/29 13:44:44;;;;;;;1.92;0.57;;;18.00;70.40;;;;;;4945036;29;20095;-75
2023/03/29 13:47:31;;;;;;;2.33;0.60;;;17.80;71.50;;;;;;4945070;29;20103;-76
2023/03/29 13:50:00;;;;;;;2.78;0.70;;;17.90;73.10;;;;;;4942794;29;20353;-77
2023/03/29 13:52:35;;;;;;;1.92;0.63;;;17.60;73.90;;;;;;4962480;28;20040;-77
2023/03/29 13:55:10;;;;;;;2.30;0.63;;;17.50;74.60;;;;;;4943608;29;20270;-74
2023/03/29 13:57:45;;;;;;;1.88;0.57;;;17.30;75.10;;;;;;4945616;29;20103;-75
2023/03/29 14:00:18;;;;;;;3.30;0.65;;;17.10;75.60;;;;;;4942531;29;20099;-74
2023/03/29 14:02:47;;;;;;;2.45;0.60;;;16.90;77.90;;;;;;4954867;29;20130;-74
2023/03/29 14:05:17;;;;;;;2.70;0.70;;;16.60;84.20;;;;;;4962756;29;20042;-74
2023/03/29 14:07:50;;;;;;;1.85;0.70;;;15.90;90.30;;;;;;4962940;28;20028;-75
2023/03/29 14:10:24;;;;;;;5.03;1.13;;;15.30;94.70;;;;;;4961825;28;20102;-74
2023/03/29 14:12:52;;;;;;;2.58;0.80;;;14.60;96.20;;;;;;4963922;28;20344;-72
2023/03/29 14:15:34;;;;;;;4.17;1.03;;;14.30;99.90;;;;;;4963303;29;20034;-73
2023/03/29 14:18:00;;;;;;;3.80;1.30;;;14.10;99.90;;;;;;4961494;28;20795;-72
2023/03/29 14:20:26;;;;;;;2.03;0.82;;;14.10;99.90;;;;;;4963473;28;20015;-72
2023/03/29 14:22:52;;;;;;;2.97;0.80;;;14.40;99.90;;;;;;4961628;28;20224;-72
2023/03/29 14:25:20;;;;;;;2.65;0.80;;;14.60;99.90;;;;;;4963253;28;20031;-71
2023/03/29 14:27:46;;;;;;;3.35;0.98;;;14.80;99.90;;;;;;4961620;28;20086;-72
2023/03/29 14:30:21;;;;;;;3.08;0.82;;;14.90;99.90;;;;;;4963651;28;20058;-71
2023/03/29 14:32:49;;;;;;;2.55;0.90;;;15.10;99.90;;;;;;4962280;28;20391;-74
2023/03/29 14:35:15;;;;;;;3.80;0.90;;;15.30;99.90;;;;;;4961795;28;20029;-72
2023/03/29 14:37:41;;;;;;;2.10;0.80;;;15.40;99.50;;;;;;4963687;28;20027;-75
2023/03/29 14:40:17;;;;;;;3.83;0.68;;;15.50;99.50;;;;;;4961530;28;20034;-74
2023/03/29 14:42:44;;;;;;;3.10;0.88;;;15.60;98.90;;;;;;4962548;28;20309;-74
2023/03/29 14:45:13;;;;;;;5.03;1.73;;;15.70;98.50;;;;;;4962485;29;20047;-74
2023/03/29 14:47:39;;;;;;;4.80;1.10;;;15.90;98.20;;;;;;4963630;28;20038;-73
2023/03/29 14:50:23;;;;;;;2.10;0.73;;;16.30;96.10;;;;;;4961413;28;20265;-72
2023/03/29 14:52:50;;;;;;;2.63;0.93;;;16.60;95.80;;;;;;4946205;28;20039;-74
2023/03/29 14:55:22;;;;;;;4.40;0.90;;;16.60;94.70;;;;;;4963550;28;20020;-73
2023/03/29 14:57:48;;;;;;;5.13;1.30;;;16.80;94.50;;;;;;4962052;28;20031;-72
2023/03/29 15:00:25;;;;;;;4.93;0.85;;;17.00;93.50;;;;;;4967494;28;20038;-73
2023/03/29 15:02:59;;;;;;;3.25;0.60;;;17.30;92.70;;;;;;4962390;28;20042;-74
2023/03/29 15:05:47;;;;;;;3.72;0.73;;;17.50;92.80;;;;;;4961774;28;20197;-75
2023/03/29 15:08:17;;;;;;;3.63;0.80;;;17.70;91.90;;;;;;4963728;28;20023;-74
2023/03/29 15:10:43;;;;;;;4.82;0.98;;;17.80;91.50;;;;;;4956599;28;20059;-75
2023/03/29 15:13:17;;;;;;;5.25;1.00;;;18.20;91.00;;;;;;4963422;28;20097;-73
2023/03/29 15:15:45;;;;;;;4.78;0.93;;;18.00;90.70;;;;;;4960511;29;20038;-73
2023/03/29 15:18:14;;;;;;;3.57;0.90;;;17.90;91.40;;;;;;4961007;28;20098;-74
2023/03/29 15:20:41;;;;;;;3.30;0.88;;;18.00;90.70;;;;;;4964397;28;20451;-75
2023/03/29 15:23:19;;;;;;;3.13;1.00;;;18.20;91.10;;;;;;4963428;28;20033;-72
2023/03/29 15:25:57;;;;;;;1.83;0.63;;;18.40;90.70;;;;;;4967369;28;20074;-74
2023/03/29 15:28:29;;;;;;;3.53;1.30;;;18.40;89.60;;;;;;4966894;28;20077;-72
2023/03/29 15:31:01;;;;;;;4.00;1.02;;;18.30;89.50;;;;;;4967134;28;20442;-74
2023/03/29 15:33:36;;;;;;;2.95;1.15;;;18.50;89.80;;;;;;4948276;29;20047;-73
2023/03/29 15:36:03;;;;;;;3.85;1.35;;;18.80;88.60;;;;;;4966582;28;20050;-76
2023/03/29 15:38:29;;;;;;;2.60;1.05;;;19.80;84.00;;;;;;4965304;28;20051;-72
2023/03/29 15:40:55;;;;;;;4.95;1.40;;;21.10;80.20;;;;;;4966853;28;20321;-73
2023/03/29 15:43:22;;;;;;;2.92;1.10;;;21.70;78.00;;;;;;4964061;28;20050;-72
2023/03/29 15:45:48;;;;;;;1.88;0.70;;;21.90;76.40;;;;;;4966054;28;20335;-74
2023/03/29 15:48:23;;;;;;;3.13;0.90;;;21.90;76.30;;;;;;4965111;28;20078;-74
2023/03/29 15:50:49;;;;;;;3.50;0.70;;;21.50;75.30;;;;;;4949679;28;20042;-76
2023/03/29 15:53:22;;;;;;;4.13;0.93;;;21.50;76.80;;;;;;4966356;28;20315;-76
2023/03/29 15:55:53;;;;;;;4.05;0.95;;;21.70;75.80;;;;;;4966718;28;20042;-75
2023/03/29 15:58:23;;;;;;;6.07;1.52;;;22.20;74.90;;;;;;4965412;28;20024;-76
2023/03/29 16:01:10;;;;;;;8.57;1.10;;;22.00;74.30;;;;;;4965500;28;20031;-75
2023/03/29 16:03:37;;;;;;;3.47;1.15;;;21.60;75.00;;;;;;4965195;28;20058;-73
2023/03/29 16:06:03;;;;;;;2.65;1.02;;;20.90;75.70;;;;;;4966207;28;20543;-73
2023/03/29 16:08:29;;;;;;;5.25;1.38;;;20.30;77.50;;;;;;4963471;28;20078;-72
2023/03/29 16:10:55;;;;;;;3.17;1.52;;;19.70;78.90;;;;;;4962253;28;20043;-73
2023/03/29 16:13:20;;;;;;;3.53;1.08;;;19.00;80.60;;;;;;4964600;28;20039;-73
2023/03/29 16:15:46;;;;;;;4.28;1.58;;;18.50;82.30;;;;;;4966148;28;20220;-73
2023/03/29 16:18:12;;;;;;;6.43;2.25;;;18.10;83.70;;;;;;4963507;28;21364;-76
2023/03/29 16:20:38;;;;;;;8.32;2.22;;;17.70;85.00;;;;;;4966462;28;20035;-74
2023/03/29 16:23:10;;;;;;;17.85;6.72;;;17.50;85.40;;;;;;4964566;28;20309;-74
2023/03/29 16:25:38;;;;;;;9.52;3.72;;;17.40;85.90;;;;;;4980024;28;20031;-72
2023/03/29 16:28:08;;;;;;;117.38;38.22;;;17.30;86.20;;;;;;4966034;28;20316;-75
2023/03/29 16:30:37;;;;;;;17.65;6.80;;;17.40;87.80;;;;;;4954503;29;20062;-76
2023/03/29 16:33:06;;;;;;;7.45;2.25;;;17.50;86.50;;;;;;4973935;28;20063;-77
2023/03/29 16:35:35;;;;;;;5.07;2.35;;;17.50;86.50;;;;;;4957641;28;20023;-77
2023/03/29 16:38:00;;;;;;;5.13;1.75;;;17.50;87.00;;;;;;4953596;29;20104;-80
2023/03/29 16:40:33;;;;;;;4.07;1.52;;;17.30;86.70;;;;;;4967557;28;20035;-77
2023/03/29 16:43:02;;;;;;;7.13;1.40;;;17.30;87.10;;;;;;4953546;28;20094;-77
2023/03/29 16:45:43;;;;;;;5.40;1.63;;;17.10;87.50;;;;;;4956125;28;20099;-79
2023/03/29 16:48:20;;;;;;;4.82;1.65;;;17.00;88.40;;;;;;4966427;28;20086;-81
2023/03/29 16:50:52;;;;;;;5.28;1.83;;;16.90;88.20;;;;;;4981572;28;20033;-79
2023/03/29 16:53:18;;;;;;;4.65;1.35;;;16.80;89.00;;;;;;4961262;28;20053;-77
2023/03/29 16:55:45;;;;;;;5.57;1.58;;;16.60;89.20;;;;;;4965222;28;20053;-77
2023/03/29 16:58:12;;;;;;;5.57;1.33;;;16.50;90.00;;;;;;4962862;28;20032;-79
2023/03/29 17:00:37;;;;;;;4.35;1.50;;;16.40;90.10;;;;;;4965869;28;20046;-77
2023/03/29 17:03:04;;;;;;;4.65;1.40;;;16.20;90.30;;;;;;4957084;28;20048;-76
2023/03/29 17:05:32;;;;;;;4.95;1.70;;;16.10;90.30;;;;;;4944679;29;20047;-75
2023/03/29 17:07:58;;;;;;;4.93;2.17;;;15.90;90.60;;;;;;4960489;28;20036;-76
2023/03/29 17:10:24;;;;;;;3.95;1.42;;;15.80;90.70;;;;;;4944341;29;20147;-75
2023/03/29 17:12:50;;;;;;;4.60;1.25;;;15.80;90.60;;;;;;4946164;29;20019;-75
2023/03/29 17:15:16;;;;;;;3.42;1.23;;;15.80;90.80;;;;;;4969114;28;20024;-75
2023/03/29 17:17:59;;;;;;;4.13;1.55;;;15.70;90.80;;;;;;4955372;28;20034;-74
2023/03/29 17:20:31;;;;;;;4.05;1.30;;;15.70;90.80;;;;;;4941380;29;20039;-76
2023/03/29 17:22:56;;;;;;;4.70;1.30;;;15.60;90.60;;;;;;4942768;29;20036;-78
2023/03/29 17:25:23;;;;;;;4.85;1.40;;;15.50;90.90;;;;;;4943748;29;20054;-77
2023/03/29 17:27:49;;;;;;;6.75;1.83;;;15.50;91.20;;;;;;4943495;29;20035;-75
2023/03/29 17:30:16;;;;;;;4.10;1.48;;;15.50;91.70;;;;;;4944350;29;20082;-75
2023/03/29 17:32:58;;;;;;;;;;;;;;;;;;;;;
2023/03/29 17:35:30;;;;;;;4.05;1.55;;;15.50;91.60;;;;;;4941604;29;20045;-78
2023/03/29 17:38:06;;;;;;;4.75;1.80;;;15.50;92.10;;;;;;4957552;29;20031;-77
2023/03/29 17:40:38;;;;;;;5.13;1.52;;;15.40;92.90;;;;;;4945371;29;20147;-76
2023/03/29 17:43:07;;;;;;;6.15;1.70;;;15.40;92.70;;;;;;4944818;29;20306;-75
2023/03/29 17:45:34;;;;;;;3.80;1.80;;;15.30;93.90;;;;;;4941252;29;20096;-76
2023/03/29 17:48:00;;;;;;;4.07;1.30;;;15.20;93.40;;;;;;4940586;29;20027;-74
2023/03/29 17:50:35;;;;;;;4.15;1.50;;;15.10;93.20;;;;;;4945581;29;20086;-76
2023/03/29 17:53:10;;;;;;;7.28;2.30;;;15.10;92.60;;;;;;4944368;29;20302;-75
2023/03/29 17:55:40;;;;;;;4.47;2.30;;;15.00;92.80;;;;;;4944792;29;20325;-76
2023/03/29 17:58:06;;;;;;;3.50;1.73;;;14.90;92.50;;;;;;4960114;28;20055;-77
2023/03/29 18:00:32;;;;;;;3.28;1.70;;;14.90;92.40;;;;;;4945489;29;20035;-75
2023/03/29 18:02:59;;;;;;;4.55;1.70;;;14.90;92.50;;;;;;4957070;28;20098;-74
2023/03/29 18:05:34;;;;;;;3.55;1.48;;;14.80;92.60;;;;;;5100443;27;20610;-74
2023/03/29 18:08:00;;;;;;;3.97;1.80;;;14.80;92.40;;;;;;5099633;28;20028;-75
2023/03/29 18:10:26;;;;;;;4.93;1.65;;;14.80;92.60;;;;;;5102381;28;20094;-74
2023/03/29 18:12:52;;;;;;;5.97;1.77;;;14.70;93.00;;;;;;5117333;28;20057;-75
2023/03/29 18:15:18;;;;;;;4.97;1.45;;;14.70;93.50;;;;;;5107328;28;20046;-74
2023/03/29 18:17:44;;;;;;;5.15;1.75;;;14.60;94.10;;;;;;5100050;28;20060;-75
2023/03/29 18:20:11;;;;;;;6.70;2.55;;;14.50;94.40;;;;;;5097016;28;20179;-74
2023/03/29 18:22:38;;;;;;;5.45;2.15;;;14.50;94.00;;;;;;5103434;28;20019;-75
2023/03/29 18:25:06;;;;;;;4.38;2.33;;;14.50;94.20;;;;;;5099059;28;20255;-73
2023/03/29 18:27:31;;;;;;;5.80;1.80;;;14.40;93.80;;;;;;5090988;28;20182;-75
2023/03/29 18:29:58;;;;;;;7.80;3.53;;;14.40;93.80;;;;;;5095564;28;20061;-76
2023/03/29 18:32:24;;;;;;;6.45;3.05;;;14.40;94.30;;;;;;5094206;28;20082;-75
2023/03/29 18:34:50;;;;;;;5.72;3.20;;;14.40;94.70;;;;;;5090194;28;20028;-75